Time;durP1;ratioP1;P1;durP2;ratioP2;P2;SDS_P1;SDS_P2;PMS_P1;PMS_P2;Temp;Humidity;BMP_temperature;BMP_pressure;BME280_temperature;BME280_humidity;BME280_pressure;Samples;Min_cycle;Max_cycle;Signal;HPM_P1;HPM_P2
2022/04/28 00:01:47;;;;;;;8.18;3.45;;;8.30;99.90;;;;;;5048387;28;20021;-80
2022/04/28 00:04:12;;;;;;;9.90;3.70;;;8.40;99.90;;;;;;5039808;28;20109;-80
2022/04/28 00:06:38;;;;;;;8.27;3.80;;;8.40;99.90;;;;;;5051374;28;20373;-80
2022/04/28 00:09:05;;;;;;;7.47;3.70;;;8.40;99.90;;;;;;5051109;28;20022;-80
2022/04/28 00:11:33;;;;;;;7.22;3.80;;;8.40;99.90;;;;;;5045577;28;20021;-81
2022/04/28 00:13:59;;;;;;;7.03;3.75;;;8.30;99.90;;;;;;5054387;28;20104;-81
2022/04/28 00:16:25;;;;;;;7.03;4.63;;;8.30;99.90;;;;;;5037145;28;20175;-81
2022/04/28 00:18:51;;;;;;;7.22;4.05;;;8.30;99.90;;;;;;5038779;28;20021;-81
2022/04/28 00:21:16;;;;;;;9.90;3.92;;;8.20;99.90;;;;;;5040486;28;20490;-81
2022/04/28 00:23:42;;;;;;;10.43;5.68;;;8.30;99.90;;;;;;5038659;28;20029;-81
2022/04/28 00:26:08;;;;;;;7.97;4.32;;;8.30;99.90;;;;;;5049802;28;20029;-81
2022/04/28 00:28:33;;;;;;;7.63;4.32;;;8.40;99.90;;;;;;5043529;28;20033;-81
2022/04/28 00:30:59;;;;;;;7.30;3.70;;;8.30;99.90;;;;;;5034504;28;20025;-81
2022/04/28 00:33:26;;;;;;;5.68;3.97;;;8.30;99.90;;;;;;5034455;28;20025;-81
2022/04/28 00:35:53;;;;;;;7.10;3.90;;;8.40;99.90;;;;;;5042754;28;20026;-81
2022/04/28 00:38:18;;;;;;;9.63;3.67;;;8.20;99.90;;;;;;5034392;28;20080;-81
2022/04/28 00:40:44;;;;;;;5.72;3.10;;;8.20;99.90;;;;;;5037182;28;20025;-81
2022/04/28 00:43:19;;;;;;;10.75;3.60;;;8.30;99.90;;;;;;5034129;28;20091;-81
2022/04/28 00:45:49;;;;;;;6.07;3.42;;;8.40;99.90;;;;;;5035125;28;20029;-81
2022/04/28 00:51:04;;;;;;;10.40;4.25;;;8.30;99.90;;;;;;5055404;28;20036;-81
2022/04/28 00:53:34;;;;;;;6.07;3.97;;;8.20;99.90;;;;;;5048377;28;20025;-81
2022/04/28 00:56:02;;;;;;;8.63;4.20;;;8.30;99.90;;;;;;5034346;28;20044;-81
2022/04/28 00:58:28;;;;;;;8.07;3.85;;;8.20;99.90;;;;;;5034153;28;20029;-81
2022/04/28 01:00:54;;;;;;;11.27;4.25;;;8.30;99.90;;;;;;5036225;28;20085;-81
2022/04/28 01:03:20;;;;;;;9.13;3.90;;;8.20;99.90;;;;;;5033634;28;20481;-81
2022/04/28 01:05:46;;;;;;;5.38;3.10;;;8.20;99.90;;;;;;5049160;28;20033;-80
2022/04/28 01:08:12;;;;;;;3.97;3.08;;;8.40;99.90;;;;;;5036994;28;20031;-81
2022/04/28 01:10:38;;;;;;;8.48;3.65;;;8.40;99.90;;;;;;5033822;28;20032;-81
2022/04/28 01:13:04;;;;;;;9.40;3.30;;;8.40;99.90;;;;;;5042026;28;20115;-81
2022/04/28 01:15:41;;;;;;;6.70;3.28;;;8.20;99.90;;;;;;5033036;28;20046;-80
2022/04/28 01:18:06;;;;;;;8.32;3.70;;;8.20;99.90;;;;;;5027700;28;20032;-80
2022/04/28 01:20:32;;;;;;;7.68;3.50;;;8.20;99.90;;;;;;5036875;28;20431;-80
2022/04/28 01:23:07;;;;;;;5.32;2.85;;;8.20;99.90;;;;;;5028268;28;20021;-80
2022/04/28 01:25:33;;;;;;;9.23;3.25;;;8.20;99.90;;;;;;5033678;28;20026;-80
2022/04/28 01:27:59;;;;;;;5.68;3.28;;;8.20;99.90;;;;;;5049995;28;20411;-80
2022/04/28 01:30:25;;;;;;;6.55;2.70;;;8.10;99.90;;;;;;5045778;28;20028;-80
2022/04/28 01:32:52;;;;;;;6.07;3.05;;;8.10;99.90;;;;;;5020611;28;20469;-80
2022/04/28 01:35:18;;;;;;;5.55;3.15;;;8.10;99.90;;;;;;5051429;28;20033;-81
2022/04/28 01:37:43;;;;;;;8.27;3.25;;;8.10;99.90;;;;;;5033275;28;20033;-80
2022/04/28 01:40:11;;;;;;;6.43;3.30;;;8.10;99.90;;;;;;5033410;28;20424;-80
2022/04/28 01:42:41;;;;;;;8.70;3.40;;;8.10;99.90;;;;;;5034605;28;20410;-80
2022/04/28 01:45:08;;;;;;;5.80;3.38;;;8.10;1.00;;;;;;5025829;28;20032;-80
2022/04/28 01:47:35;;;;;;;6.40;3.42;;;8.00;1.00;;;;;;5033041;28;20032;-80
2022/04/28 01:50:01;;;;;;;8.30;3.58;;;8.00;1.00;;;;;;5032843;28;20025;-80
2022/04/28 01:55:11;;;;;;;5.35;3.80;;;8.00;99.90;;;;;;5042963;28;20041;-80
2022/04/28 01:57:39;;;;;;;6.65;3.50;;;8.00;1.00;;;;;;5016521;28;20033;-80
2022/04/28 02:00:06;;;;;;;7.22;3.88;;;8.10;99.90;;;;;;5032133;28;20029;-80
2022/04/28 02:02:31;;;;;;;6.90;3.33;;;7.90;99.90;;;;;;5036052;28;20025;-81
2022/04/28 02:05:00;;;;;;;5.32;3.47;;;7.90;99.90;;;;;;5036080;28;20088;-80
2022/04/28 02:07:27;;;;;;;4.53;2.92;;;7.90;99.90;;;;;;5032237;28;20040;-80
2022/04/28 02:09:53;;;;;;;9.68;3.25;;;7.90;99.90;;;;;;5023284;28;20150;-80
2022/04/28 02:12:20;;;;;;;7.35;3.30;;;8.00;99.90;;;;;;5032953;28;20056;-81
2022/04/28 02:14:46;;;;;;;5.90;3.15;;;7.90;99.90;;;;;;5030239;28;20087;-81
2022/04/28 02:17:15;;;;;;;6.47;3.08;;;7.90;99.90;;;;;;5047226;28;20032;-80
2022/04/28 02:19:41;;;;;;;6.32;3.35;;;7.90;99.90;;;;;;5032508;28;20038;-80
2022/04/28 02:22:07;;;;;;;4.75;3.30;;;7.90;99.90;;;;;;5039293;28;20302;-80
2022/04/28 02:24:32;;;;;;;6.57;2.13;;;7.90;99.90;;;;;;5035650;28;20057;-80
2022/04/28 02:26:58;;;;;;;4.55;2.72;;;8.00;99.90;;;;;;5048988;28;20026;-80
2022/04/28 02:29:23;;;;;;;8.05;2.65;;;7.90;99.90;;;;;;5057150;28;20377;-80
2022/04/28 02:31:49;;;;;;;4.95;2.42;;;7.90;99.90;;;;;;5052560;28;20017;-81
2022/04/28 02:34:15;;;;;;;3.97;2.38;;;7.90;99.90;;;;;;5052219;28;20036;-81
2022/04/28 02:36:43;;;;;;;5.70;3.00;;;7.90;99.90;;;;;;5048476;28;20496;-81
2022/04/28 02:39:09;;;;;;;6.03;2.88;;;7.90;99.90;;;;;;5048975;28;20025;-80
2022/04/28 02:41:36;;;;;;;7.43;2.85;;;7.80;99.90;;;;;;5058721;28;20079;-81
2022/04/28 02:44:02;;;;;;;5.63;2.83;;;7.90;99.90;;;;;;5048419;28;20496;-81
2022/04/28 02:46:29;;;;;;;5.40;2.97;;;7.80;99.90;;;;;;5016116;28;20120;-80
2022/04/28 02:48:55;;;;;;;9.25;2.58;;;7.80;99.90;;;;;;5051625;28;20020;-80
2022/04/28 02:51:23;;;;;;;4.18;2.92;;;7.80;99.90;;;;;;5051838;28;20288;-80
2022/04/28 02:53:48;;;;;;;4.88;2.67;;;7.80;99.90;;;;;;5051931;28;20048;-80
2022/04/28 02:56:14;;;;;;;5.38;2.80;;;7.80;99.90;;;;;;5051897;28;20056;-80
2022/04/28 02:58:40;;;;;;;7.55;3.58;;;7.70;99.90;;;;;;5048598;28;20451;-81
2022/04/28 03:01:05;;;;;;;5.82;3.05;;;7.70;99.90;;;;;;5060753;28;20040;-81
2022/04/28 03:03:32;;;;;;;6.45;4.25;;;7.70;99.90;;;;;;5035358;28;20029;-81
2022/04/28 03:11:26;;;;;;;7.13;3.60;;;7.70;99.90;;;;;;5052950;28;20028;-81
2022/04/28 03:13:53;;;;;;;6.30;3.33;;;7.80;99.90;;;;;;5053590;28;20029;-81
2022/04/28 03:16:18;;;;;;;6.40;3.03;;;7.60;99.90;;;;;;5047760;28;20052;-82
2022/04/28 03:18:45;;;;;;;9.00;3.50;;;7.60;99.90;;;;;;5058111;28;20021;-82
2022/04/28 03:21:11;;;;;;;10.43;3.33;;;7.60;99.90;;;;;;5038185;28;20108;-82
2022/04/28 03:23:37;;;;;;;5.53;3.15;;;7.50;99.90;;;;;;5049635;28;20052;-82
2022/04/28 03:26:04;;;;;;;12.27;3.67;;;7.60;99.90;;;;;;5051564;28;20029;-82
2022/04/28 03:28:34;;;;;;;7.43;3.67;;;7.60;99.90;;;;;;5030843;28;20022;-82
2022/04/28 03:31:02;;;;;;;4.47;3.10;;;7.60;99.90;;;;;;5051159;28;20021;-82
2022/04/28 03:33:28;;;;;;;7.15;3.83;;;7.60;99.90;;;;;;5051555;28;20036;-81
2022/04/28 03:35:54;;;;;;;9.10;3.75;;;7.60;99.90;;;;;;5048082;28;20037;-82
2022/04/28 03:38:19;;;;;;;5.75;3.03;;;7.60;99.90;;;;;;5048297;28;20026;-82
2022/04/28 03:40:45;;;;;;;8.18;3.92;;;7.60;99.90;;;;;;5056053;28;20020;-82
2022/04/28 03:43:12;;;;;;;7.60;3.60;;;7.60;99.90;;;;;;5047578;28;20116;-82
2022/04/28 03:45:38;;;;;;;9.52;4.10;;;7.60;99.90;;;;;;5048027;28;20025;-82
2022/04/28 03:48:08;;;;;;;7.22;4.10;;;7.60;99.90;;;;;;5056164;28;20017;-81
2022/04/28 03:50:34;;;;;;;10.35;4.57;;;7.60;99.90;;;;;;5046561;28;20067;-82
2022/04/28 03:53:00;;;;;;;8.13;4.10;;;7.60;99.90;;;;;;5044480;28;20057;-82
2022/04/28 03:55:26;;;;;;;6.32;4.20;;;7.40;99.90;;;;;;5034612;28;20045;-82
2022/04/28 03:57:52;;;;;;;7.28;3.60;;;7.50;99.90;;;;;;5050021;28;20021;-82
2022/04/28 04:00:19;;;;;;;4.35;3.70;;;7.70;99.90;;;;;;5055769;28;20385;-82
2022/04/28 04:02:45;;;;;;;5.97;3.00;;;7.50;99.90;;;;;;5063792;28;20423;-82
2022/04/28 04:05:11;;;;;;;7.55;3.63;;;7.60;99.90;;;;;;5047614;28;20029;-82
2022/04/28 04:07:38;;;;;;;6.85;3.28;;;7.60;99.90;;;;;;5062398;28;20074;-82
2022/04/28 04:10:07;;;;;;;7.13;2.85;;;7.60;99.90;;;;;;5048271;28;20032;-82
2022/04/28 04:12:33;;;;;;;6.60;3.42;;;7.70;99.90;;;;;;5053963;28;20124;-82
2022/04/28 04:14:59;;;;;;;5.55;2.88;;;7.70;99.90;;;;;;5048571;28;20129;-82
2022/04/28 04:17:25;;;;;;;5.97;3.47;;;7.80;99.90;;;;;;5034585;28;20029;-82
2022/04/28 04:19:50;;;;;;;6.35;3.70;;;7.80;99.90;;;;;;5027981;28;20022;-82
2022/04/28 04:22:16;;;;;;;8.57;3.65;;;7.90;99.90;;;;;;5037388;28;20018;-81
2022/04/28 04:24:42;;;;;;;7.82;4.03;;;7.90;99.90;;;;;;5041580;28;20365;-81
2022/04/28 04:27:08;;;;;;;9.38;3.85;;;7.90;99.90;;;;;;5041592;28;20028;-81
2022/04/28 04:29:33;;;;;;;7.85;3.45;;;7.80;99.90;;;;;;5034204;28;20024;-80
2022/04/28 04:32:17;;;;;;;5.82;3.60;;;7.90;99.90;;;;;;5034456;28;20032;-80
2022/04/28 04:34:43;;;;;;;7.80;4.22;;;7.90;99.90;;;;;;5033824;28;20599;-81
2022/04/28 04:37:09;;;;;;;8.73;3.85;;;7.90;99.90;;;;;;5040547;28;20030;-81
2022/04/28 04:39:34;;;;;;;7.40;3.90;;;7.90;99.90;;;;;;5051301;28;20024;-81
2022/04/28 04:42:00;;;;;;;7.22;3.85;;;8.00;99.90;;;;;;5034297;28;20017;-81
2022/04/28 04:44:26;;;;;;;9.45;4.03;;;8.00;99.90;;;;;;5041959;28;20022;-80
2022/04/28 04:46:51;;;;;;;7.97;4.30;;;8.00;99.90;;;;;;5036370;28;20032;-80
2022/04/28 04:49:17;;;;;;;7.15;3.90;;;8.10;99.90;;;;;;5019570;28;20026;-80
2022/04/28 04:51:44;;;;;;;10.32;5.05;;;8.10;99.90;;;;;;5033750;28;20411;-80
2022/04/28 04:54:09;;;;;;;6.40;4.20;;;8.10;99.90;;;;;;5037805;28;20057;-80
2022/04/28 04:56:36;;;;;;;6.97;3.90;;;8.20;99.90;;;;;;5055844;28;20068;-80
2022/04/28 04:59:02;;;;;;;8.85;4.30;;;8.20;99.90;;;;;;5035939;28;20028;-81
2022/04/28 05:01:29;;;;;;;5.68;3.40;;;8.30;99.90;;;;;;5035943;28;20507;-81
2022/04/28 05:03:54;;;;;;;5.45;3.90;;;8.30;99.90;;;;;;5054611;28;20456;-80
2022/04/28 05:06:20;;;;;;;7.43;3.95;;;8.40;99.90;;;;;;5051745;28;20353;-80
2022/04/28 05:08:46;;;;;;;6.15;3.63;;;8.30;99.90;;;;;;5054182;28;20687;-81
2022/04/28 05:11:11;;;;;;;8.50;3.85;;;8.30;99.90;;;;;;5034031;28;20429;-81
2022/04/28 05:13:41;;;;;;;4.80;3.92;;;8.40;99.90;;;;;;5033422;28;20384;-82
2022/04/28 05:16:07;;;;;;;9.98;4.57;;;8.40;99.90;;;;;;5032151;28;20098;-80
2022/04/28 05:18:32;;;;;;;10.10;4.82;;;8.40;99.90;;;;;;5054363;28;20104;-78
2022/04/28 05:20:58;;;;;;;10.00;4.63;;;8.40;99.90;;;;;;5054365;28;20048;-78
2022/04/28 05:23:24;;;;;;;6.20;3.78;;;8.40;99.90;;;;;;5054513;28;20061;-78
2022/04/28 05:25:49;;;;;;;7.15;3.80;;;8.40;99.90;;;;;;5044921;28;20111;-77
2022/04/28 05:28:15;;;;;;;11.40;4.20;;;8.40;99.90;;;;;;5039612;28;20385;-78
2022/04/28 05:30:41;;;;;;;9.43;4.88;;;8.40;99.90;;;;;;5044412;28;20043;-78
2022/04/28 05:33:15;;;;;;;9.60;4.15;;;8.40;99.90;;;;;;5049095;28;20489;-77
2022/04/28 05:35:42;;;;;;;10.23;4.40;;;8.40;1.00;;;;;;5038113;28;20506;-78
2022/04/28 05:38:10;;;;;;;7.93;4.40;;;8.40;1.00;;;;;;5048248;28;20025;-78
2022/04/28 05:40:39;;;;;;;10.13;4.35;;;8.50;1.00;;;;;;5048506;28;20021;-78
2022/04/28 05:49:47;;;;;;;7.43;3.55;;;8.60;1.00;;;;;;5055400;28;20087;-78
2022/04/28 05:52:13;;;;;;;7.15;3.67;;;8.70;1.00;;;;;;5053676;28;20136;-77
2022/04/28 05:54:40;;;;;;;8.40;2.97;;;8.80;1.00;;;;;;5051945;28;20103;-77
2022/04/28 05:57:06;;;;;;;10.70;3.47;;;8.90;1.00;;;;;;5048793;28;20040;-78
2022/04/28 05:59:32;;;;;;;7.45;1.70;;;9.00;1.00;;;;;;5041576;28;20033;-77
2022/04/28 06:01:58;;;;;;;6.95;2.30;;;9.10;1.00;;;;;;5043630;28;20032;-77
2022/04/28 06:04:23;;;;;;;14.63;4.55;;;9.10;1.00;;;;;;5035191;28;20026;-77
2022/04/28 06:06:49;;;;;;;9.23;3.13;;;9.10;1.00;;;;;;5035250;28;20064;-77
2022/04/28 06:09:14;;;;;;;5.63;3.13;;;9.20;1.00;;;;;;5035068;28;20022;-77
2022/04/28 06:11:40;;;;;;;6.53;2.80;;;9.30;1.00;;;;;;5034779;28;20025;-77
2022/04/28 06:14:32;;;;;;;8.60;2.90;;;9.40;1.00;;;;;;5034904;28;20029;-77
2022/04/28 06:16:58;;;;;;;9.07;3.30;;;9.40;1.00;;;;;;5034664;28;20485;-77
2022/04/28 06:22:46;;;;;;;5.70;2.10;;;9.40;1.00;;;;;;5035596;28;20036;-77
2022/04/28 06:25:12;;;;;;;8.13;2.70;;;9.50;1.00;;;;;;5030250;28;20022;-77
2022/04/28 06:27:38;;;;;;;7.57;3.03;;;9.60;1.00;;;;;;5015747;28;20049;-78
2022/04/28 06:30:05;;;;;;;12.93;2.78;;;9.60;1.00;;;;;;5026415;28;20053;-77
2022/04/28 06:32:31;;;;;;;3.42;1.52;;;9.60;1.00;;;;;;5018692;28;20034;-77
2022/04/28 06:34:56;;;;;;;6.47;2.60;;;9.70;1.00;;;;;;5024123;28;20029;-78
2022/04/28 06:37:23;;;;;;;9.00;2.53;;;9.70;1.00;;;;;;5033287;28;20508;-78
2022/04/28 06:40:05;;;;;;;5.03;1.98;;;9.60;1.00;;;;;;5027938;28;20024;-78
2022/04/28 06:42:31;;;;;;;5.78;2.00;;;9.70;99.90;;;;;;5026308;28;20049;-78
2022/04/28 06:44:56;;;;;;;4.55;2.00;;;9.90;1.00;;;;;;5026763;28;20045;-81
2022/04/28 06:47:23;;;;;;;8.27;2.03;;;9.90;1.00;;;;;;5031326;28;20033;-78
2022/04/28 06:49:48;;;;;;;5.90;2.15;;;10.10;99.90;;;;;;5027860;28;20033;-78
2022/04/28 06:52:15;;;;;;;5.95;2.50;;;10.30;99.90;;;;;;5024176;28;20032;-78
2022/04/28 06:54:41;;;;;;;4.78;1.50;;;10.50;99.90;;;;;;5025851;28;20030;-78
2022/04/28 06:57:06;;;;;;;5.40;1.95;;;10.50;99.90;;;;;;5025402;28;20037;-78
2022/04/28 06:59:32;;;;;;;4.88;2.00;;;10.80;99.90;;;;;;5020374;28;20032;-78
2022/04/28 07:01:57;;;;;;;4.10;1.50;;;10.80;99.90;;;;;;5032685;28;20036;-78
2022/04/28 07:04:26;;;;;;;6.18;1.75;;;10.70;99.90;;;;;;5031890;28;20415;-78
2022/04/28 07:06:51;;;;;;;6.70;1.77;;;10.60;99.90;;;;;;5027655;28;20022;-79
2022/04/28 07:09:17;;;;;;;4.20;1.80;;;10.60;99.90;;;;;;5021612;28;20075;-78
2022/04/28 07:11:42;;;;;;;5.90;1.83;;;10.70;99.90;;;;;;5030936;28;20029;-77
2022/04/28 07:14:08;;;;;;;4.32;1.10;;;10.80;99.90;;;;;;5025704;28;20033;-77
2022/04/28 07:16:33;;;;;;;2.20;1.27;;;11.10;99.90;;;;;;5032991;28;20049;-77
2022/04/28 07:18:59;;;;;;;3.20;1.90;;;11.20;99.90;;;;;;5032663;28;20076;-77
2022/04/28 07:21:24;;;;;;;4.85;1.90;;;11.30;99.90;;;;;;5044766;28;20013;-78
2022/04/28 07:23:50;;;;;;;4.20;1.25;;;11.40;99.90;;;;;;5076911;28;20100;-77
2022/04/28 07:26:31;;;;;;;3.72;1.60;;;11.80;99.90;;;;;;5074847;28;20379;-78
2022/04/28 07:28:56;;;;;;;4.28;1.55;;;11.60;99.90;;;;;;5050878;28;20021;-78
2022/04/28 07:31:23;;;;;;;6.20;2.65;;;11.80;99.90;;;;;;5052025;28;20044;-78
2022/04/28 07:33:49;;;;;;;2.95;1.30;;;11.50;99.90;;;;;;5050359;28;20657;-78
2022/04/28 07:36:14;;;;;;;4.00;1.83;;;11.70;99.90;;;;;;5046095;28;20041;-79
2022/04/28 07:38:41;;;;;;;6.95;1.67;;;11.70;99.90;;;;;;5052635;28;20372;-78
2022/04/28 07:41:07;;;;;;;3.53;1.40;;;11.60;99.90;;;;;;5040400;28;20072;-78
2022/04/28 07:43:32;;;;;;;5.30;1.52;;;11.40;99.90;;;;;;5039378;28;20496;-82
2022/04/28 07:45:58;;;;;;;2.25;1.48;;;11.40;99.90;;;;;;5053120;28;20036;-80
2022/04/28 07:48:24;;;;;;;3.38;1.73;;;11.90;99.90;;;;;;5053705;28;20028;-80
2022/04/28 07:50:50;;;;;;;4.80;1.90;;;11.70;99.90;;;;;;5053166;28;20090;-79
2022/04/28 07:53:15;;;;;;;5.82;1.90;;;11.20;99.90;;;;;;5051579;28;20403;-80
2022/04/28 07:55:41;;;;;;;7.03;1.70;;;11.50;99.90;;;;;;5035258;28;20504;-80
2022/04/28 07:58:07;;;;;;;7.57;1.73;;;11.50;99.90;;;;;;5053097;28;20086;-79
2022/04/28 08:00:33;;;;;;;3.88;1.58;;;11.70;99.90;;;;;;5052977;28;20025;-80
2022/04/28 08:02:59;;;;;;;3.67;1.58;;;11.60;99.90;;;;;;5053114;28;20104;-79
2022/04/28 08:05:25;;;;;;;2.65;1.55;;;11.40;99.90;;;;;;5044834;28;20495;-80
2022/04/28 08:07:51;;;;;;;5.72;1.75;;;11.40;99.90;;;;;;5052945;28;20074;-80
2022/04/28 08:10:16;;;;;;;4.57;1.50;;;11.60;99.90;;;;;;5052763;28;20025;-78
2022/04/28 08:12:42;;;;;;;3.72;1.75;;;11.70;99.90;;;;;;5052823;28;20021;-79
2022/04/28 08:15:08;;;;;;;5.85;2.03;;;11.70;99.90;;;;;;5054037;28;20894;-78
2022/04/28 08:17:34;;;;;;;2.25;1.40;;;11.80;99.90;;;;;;5056591;28;20098;-77
2022/04/28 08:19:59;;;;;;;4.90;2.17;;;11.70;99.90;;;;;;5056607;28;20032;-77
2022/04/28 08:22:25;;;;;;;6.15;1.67;;;12.10;99.90;;;;;;5056657;28;20025;-77
2022/04/28 08:24:51;;;;;;;3.72;1.73;;;12.20;99.90;;;;;;5038707;28;20048;-77
2022/04/28 08:27:16;;;;;;;5.82;2.33;;;12.10;99.90;;;;;;5056573;28;20028;-77
2022/04/28 08:29:42;;;;;;;3.95;1.50;;;12.00;99.90;;;;;;5056803;28;20044;-81
2022/04/28 08:32:07;;;;;;;4.20;1.63;;;12.20;99.90;;;;;;5056596;28;20029;-80
2022/04/28 08:34:33;;;;;;;6.40;1.33;;;12.30;99.90;;;;;;5056238;28;20029;-79
2022/04/28 08:36:59;;;;;;;6.70;1.50;;;12.40;99.90;;;;;;5056407;28;20021;-79
2022/04/28 08:39:25;;;;;;;5.15;1.20;;;12.30;99.90;;;;;;5056346;28;20494;-79
2022/04/28 08:41:53;;;;;;;4.82;1.60;;;12.10;99.90;;;;;;5038388;28;20116;-79
2022/04/28 08:44:26;;;;;;;4.22;1.58;;;12.30;99.90;;;;;;5056510;28;20021;-79
2022/04/28 08:46:54;;;;;;;5.38;1.48;;;12.70;99.90;;;;;;5054881;28;20600;-78
2022/04/28 08:49:22;;;;;;;9.05;1.50;;;13.00;99.90;;;;;;5050935;28;20388;-79
2022/04/28 08:51:50;;;;;;;4.25;1.45;;;13.20;99.90;;;;;;5053897;28;20025;-79
2022/04/28 08:54:16;;;;;;;7.15;1.38;;;13.20;99.90;;;;;;5055981;28;20021;-79
2022/04/28 08:57:37;;;;;;;6.80;1.48;;;13.50;99.90;;;;;;5037968;28;20113;-79
2022/04/28 09:00:04;;;;;;;4.70;1.48;;;13.30;99.90;;;;;;5036696;28;20099;-79
2022/04/28 09:02:31;;;;;;;9.30;1.58;;;12.60;99.90;;;;;;5036597;28;20056;-83
2022/04/28 09:05:06;;;;;;;3.88;1.52;;;12.50;99.90;;;;;;5019291;28;20025;-82
2022/04/28 09:07:37;;;;;;;7.88;1.42;;;12.30;99.90;;;;;;5055159;28;20088;-81
2022/04/28 09:10:29;;;;;;;3.72;1.10;;;11.90;99.90;;;;;;5055947;28;20021;-80
2022/04/28 09:14:08;;;;;;;3.13;1.40;;;12.10;99.90;;;;;;5044715;28;20041;-81
2022/04/28 09:15:46;;;;;;;7.27;1.40;;;12.00;99.90;;;;;;5055224;28;20444;-81
2022/04/28 09:18:11;;;;;;;4.28;1.33;;;12.20;99.90;;;;;;5055536;28;20075;-80
2022/04/28 09:20:37;;;;;;;3.70;1.35;;;12.20;99.90;;;;;;5055516;28;20028;-80
2022/04/28 09:23:03;;;;;;;8.43;1.85;;;11.80;99.90;;;;;;5055482;28;20406;-81
2022/04/28 09:25:31;;;;;;;2.38;1.05;;;12.10;99.90;;;;;;5055199;28;20032;-81
2022/04/28 09:27:59;;;;;;;6.28;1.67;;;11.90;99.90;;;;;;5035935;28;20428;-81
2022/04/28 09:30:26;;;;;;;2.67;1.27;;;12.00;99.90;;;;;;5035388;28;20473;-80
2022/04/28 09:32:52;;;;;;;6.15;1.35;;;12.30;99.90;;;;;;5035703;28;20044;-81
2022/04/28 09:35:17;;;;;;;6.20;1.67;;;12.60;99.90;;;;;;5035206;28;20026;-81
2022/04/28 09:37:43;;;;;;;3.30;1.05;;;12.40;99.90;;;;;;5035254;28;20049;-80
2022/04/28 09:42:54;;;;;;;3.83;1.33;;;12.90;99.90;;;;;;5055535;28;20036;-78
2022/04/28 09:45:22;;;;;;;7.47;1.67;;;12.60;99.90;;;;;;5055064;28;20025;-80
2022/04/28 09:48:04;;;;;;;4.38;1.33;;;12.80;99.90;;;;;;5037208;28;20025;-79
2022/04/28 09:50:34;;;;;;;5.55;1.33;;;13.00;99.90;;;;;;5055049;28;20071;-79
2022/04/28 09:53:04;;;;;;;4.72;1.40;;;13.30;99.90;;;;;;5054953;28;20025;-78
2022/04/28 09:55:30;;;;;;;7.00;1.70;;;13.70;99.90;;;;;;5054846;28;20029;-79
2022/04/28 09:57:56;;;;;;;4.32;1.58;;;13.60;99.90;;;;;;5054810;28;20464;-78
2022/04/28 10:00:22;;;;;;;6.32;1.80;;;13.20;99.90;;;;;;5036364;28;20071;-79
2022/04/28 10:02:48;;;;;;;4.68;1.60;;;13.30;99.90;;;;;;5051435;28;20049;-79
2022/04/28 10:05:15;;;;;;;5.25;1.77;;;13.20;99.90;;;;;;5037482;28;20420;-79
2022/04/28 10:07:41;;;;;;;4.93;1.70;;;13.70;99.90;;;;;;5051206;28;20033;-79
2022/04/28 10:10:07;;;;;;;6.70;1.67;;;13.50;99.90;;;;;;5054262;28;20025;-79
2022/04/28 10:12:33;;;;;;;7.68;1.52;;;14.00;99.90;;;;;;5054433;28;20112;-79
2022/04/28 10:15:00;;;;;;;6.72;2.55;;;13.90;99.90;;;;;;5071163;28;20425;-79
2022/04/28 10:17:44;;;;;;;2.92;1.55;;;14.10;99.90;;;;;;5042199;28;20052;-78
2022/04/28 10:20:15;;;;;;;3.78;1.73;;;13.90;99.90;;;;;;5044390;28;20100;-79
2022/04/28 10:22:42;;;;;;;5.30;2.45;;;14.70;99.90;;;;;;5051463;28;20018;-79
2022/04/28 10:32:22;;;;;;;7.60;2.80;;;14.80;99.90;;;;;;5034566;28;20155;-80
2022/04/28 10:33:48;;;;;;;4.00;1.80;;;15.00;99.90;;;;;;5037830;28;20028;-80
2022/04/28 10:36:21;;;;;;;4.85;1.90;;;14.40;99.90;;;;;;5044756;28;20036;-79
2022/04/28 10:39:12;;;;;;;6.70;1.90;;;14.90;99.90;;;;;;5052278;28;20074;-79
2022/04/28 10:41:38;;;;;;;7.72;2.25;;;14.80;99.90;;;;;;5037899;28;20091;-80
2022/04/28 10:44:16;;;;;;;9.98;2.30;;;14.90;99.90;;;;;;5032963;28;20025;-80
2022/04/28 10:46:59;;;;;;;6.20;2.13;;;15.40;99.90;;;;;;5033244;28;20100;-80
2022/04/28 10:49:25;;;;;;;7.05;2.90;;;15.10;99.90;;;;;;5041519;28;20032;-80
2022/04/28 10:51:57;;;;;;;6.25;2.50;;;14.40;99.90;;;;;;5047062;28;20048;-79
2022/04/28 10:54:24;;;;;;;8.02;2.05;;;14.30;99.90;;;;;;5053062;28;20056;-79
2022/04/28 10:56:56;;;;;;;3.63;1.95;;;14.40;99.90;;;;;;5046303;28;20427;-80
2022/04/28 10:59:34;;;;;;;4.88;1.63;;;13.90;99.90;;;;;;5041385;28;20499;-79
2022/04/28 11:02:13;;;;;;;4.97;1.52;;;14.10;99.90;;;;;;5046014;28;20029;-79
2022/04/28 11:04:41;;;;;;;7.22;2.47;;;14.10;99.90;;;;;;5032730;28;20041;-79
2022/04/28 11:07:10;;;;;;;8.45;2.20;;;14.10;99.90;;;;;;5033358;28;20037;-80
2022/04/28 11:09:37;;;;;;;5.25;2.30;;;13.90;99.90;;;;;;5052269;28;20729;-79
2022/04/28 11:12:19;;;;;;;6.43;2.08;;;14.20;99.90;;;;;;5044123;28;20044;-79
2022/04/28 11:14:47;;;;;;;2.78;1.60;;;14.30;99.90;;;;;;5051090;28;20388;-79
2022/04/28 11:17:14;;;;;;;6.90;2.55;;;13.60;99.90;;;;;;5052534;28;20045;-79
2022/04/28 11:19:41;;;;;;;8.52;2.47;;;13.70;99.90;;;;;;5035726;28;20412;-79
2022/04/28 11:22:07;;;;;;;6.75;2.47;;;13.80;99.90;;;;;;5053642;28;20032;-79
2022/04/28 11:24:33;;;;;;;7.13;2.60;;;13.90;99.90;;;;;;5032564;28;20030;-79
2022/04/28 11:26:59;;;;;;;5.57;2.38;;;14.20;99.90;;;;;;5034662;28;20018;-79
2022/04/28 11:29:27;;;;;;;6.63;2.88;;;14.40;99.90;;;;;;5052512;28;20075;-79
2022/04/28 11:31:53;;;;;;;6.82;2.22;;;14.20;99.90;;;;;;5042576;28;20036;-79
2022/04/28 11:34:19;;;;;;;6.43;2.30;;;14.80;99.90;;;;;;5042880;28;20473;-79
2022/04/28 11:36:46;;;;;;;8.60;2.50;;;14.90;99.90;;;;;;5052156;28;20029;-79
2022/04/28 11:39:11;;;;;;;9.40;3.03;;;14.90;99.90;;;;;;5040895;28;20018;-79
2022/04/28 11:41:40;;;;;;;8.18;2.90;;;14.60;99.90;;;;;;5032399;28;20022;-79
2022/04/28 11:44:17;;;;;;;7.72;2.90;;;14.90;99.90;;;;;;5033270;28;20692;-79
2022/04/28 11:46:42;;;;;;;8.32;3.17;;;15.30;99.90;;;;;;5037126;28;20023;-79
2022/04/28 11:49:08;;;;;;;9.63;2.83;;;15.20;99.90;;;;;;5041303;28;20028;-79
2022/04/28 11:51:34;;;;;;;3.92;1.65;;;14.70;99.90;;;;;;5048063;28;20453;-79
2022/04/28 11:54:01;;;;;;;10.15;2.58;;;14.60;99.90;;;;;;5056322;28;20025;-79
2022/04/28 11:56:30;;;;;;;4.05;1.38;;;14.40;99.90;;;;;;5048299;28;20044;-79
2022/04/28 11:58:58;;;;;;;5.07;2.38;;;14.20;99.90;;;;;;5037935;28;20112;-79
2022/04/28 12:01:25;;;;;;;5.45;1.60;;;13.80;99.90;;;;;;5051560;28;20477;-79
2022/04/28 12:03:55;;;;;;;2.50;1.73;;;14.10;99.90;;;;;;5056316;28;20025;-79
2022/04/28 12:06:22;;;;;;;5.75;2.00;;;14.20;99.90;;;;;;5036829;28;20037;-79
2022/04/28 12:08:53;;;;;;;6.85;2.28;;;14.50;99.90;;;;;;5044113;28;20075;-79
2022/04/28 12:14:23;;;;;;;6.18;2.13;;;13.90;99.90;;;;;;5047667;28;20079;-80
2022/04/28 12:19:52;;;;;;;5.38;2.67;;;14.10;99.90;;;;;;5047341;28;20044;-79
2022/04/28 12:22:28;;;;;;;4.50;2.20;;;13.70;99.90;;;;;;5054386;28;20114;-79
2022/04/28 12:24:55;;;;;;;5.75;1.83;;;14.50;99.90;;;;;;5055167;28;20586;-79
2022/04/28 12:27:20;;;;;;;6.95;2.78;;;14.70;99.90;;;;;;5046029;28;20026;-79
2022/04/28 12:29:58;;;;;;;4.63;2.35;;;14.20;99.90;;;;;;5041732;28;20024;-79
2022/04/28 12:32:24;;;;;;;4.88;2.15;;;14.70;99.90;;;;;;5050157;28;20021;-79
2022/04/28 12:35:03;;;;;;;6.80;2.35;;;14.40;99.90;;;;;;5053142;28;20036;-79
2022/04/28 12:37:29;;;;;;;9.50;2.72;;;14.10;99.90;;;;;;5054441;28;20017;-79
2022/04/28 12:40:00;;;;;;;7.38;1.92;;;14.00;99.90;;;;;;5055434;28;20048;-79
2022/04/28 12:42:29;;;;;;;6.63;1.70;;;13.80;99.90;;;;;;5046914;28;20037;-82
2022/04/28 12:45:01;;;;;;;7.07;2.45;;;13.70;99.90;;;;;;5054670;28;20029;-79
2022/04/28 12:47:38;;;;;;;6.13;2.15;;;13.30;99.90;;;;;;5051270;28;20487;-79
2022/04/28 12:50:23;;;;;;;5.88;2.53;;;14.00;99.90;;;;;;5040794;28;20021;-79
2022/04/28 12:52:51;;;;;;;4.90;2.28;;;14.00;99.90;;;;;;5039411;28;20025;-79
2022/04/28 12:55:19;;;;;;;7.20;2.47;;;13.90;99.90;;;;;;5047188;28;20038;-79
2022/04/28 12:57:46;;;;;;;6.45;2.72;;;14.40;99.90;;;;;;5035475;28;20472;-79
2022/04/28 13:00:13;;;;;;;7.18;2.30;;;13.90;99.90;;;;;;5034947;28;20029;-78
2022/04/28 13:02:46;;;;;;;3.60;1.92;;;14.00;99.90;;;;;;5036214;28;20025;-79
2022/04/28 13:05:14;;;;;;;1.92;1.30;;;14.10;99.90;;;;;;5048559;28;20108;-79
2022/04/28 13:07:41;;;;;;;3.50;2.13;;;13.90;99.90;;;;;;5035645;28;20030;-78
2022/04/28 13:10:13;;;;;;;6.30;2.80;;;13.90;99.90;;;;;;5035907;28;20495;-79
2022/04/28 13:12:39;;;;;;;6.57;2.13;;;14.30;99.90;;;;;;5036082;28;20029;-79
2022/04/28 13:15:06;;;;;;;5.63;2.22;;;13.90;99.90;;;;;;5018283;28;20049;-79
2022/04/28 13:17:32;;;;;;;4.00;2.17;;;14.30;99.90;;;;;;5035850;28;20385;-78
2022/04/28 13:19:58;;;;;;;8.82;2.75;;;13.90;99.90;;;;;;5035110;28;20029;-78
2022/04/28 13:22:24;;;;;;;6.32;2.47;;;13.80;99.90;;;;;;5050164;28;20029;-79
2022/04/28 13:24:50;;;;;;;7.80;1.85;;;14.10;99.90;;;;;;5043879;28;20543;-78
2022/04/28 13:27:16;;;;;;;4.00;1.38;;;14.00;99.90;;;;;;5034641;28;20018;-79
2022/04/28 13:29:41;;;;;;;4.85;2.50;;;13.90;99.90;;;;;;5034824;28;20109;-77
2022/04/28 13:32:08;;;;;;;5.10;2.13;;;13.30;99.90;;;;;;5034398;28;20034;-78